sensor_id;sensor_type;location;lat;lon;timestamp;P1;durP1;ratioP1;P2;durP2;ratioP2
20318;SDS011;10317;47.254;11.314;2022-08-27T00:00:24;6.43;;;5.88;;
20318;SDS011;10317;47.254;11.314;2022-08-27T00:02:49;6.10;;;5.60;;
20318;SDS011;10317;47.254;11.314;2022-08-27T00:05:16;6.80;;;6.20;;
20318;SDS011;10317;47.254;11.314;2022-08-27T00:07:42;6.90;;;6.30;;
20318;SDS011;10317;47.254;11.314;2022-08-27T00:10:11;6.88;;;6.28;;
20318;SDS011;10317;47.254;11.314;2022-08-27T00:12:40;7.22;;;6.53;;
20318;SDS011;10317;47.254;11.314;2022-08-27T00:15:06;7.50;;;6.75;;
20318;SDS011;10317;47.254;11.314;2022-08-27T00:17:33;8.25;;;6.30;;
20318;SDS011;10317;47.254;11.314;2022-08-27T00:20:00;7.05;;;6.43;;
20318;SDS011;10317;47.254;11.314;2022-08-27T00:22:25;7.35;;;6.65;;
20318;SDS011;10317;47.254;11.314;2022-08-27T00:24:51;8.88;;;6.10;;
20318;SDS011;10317;47.254;11.314;2022-08-27T00:27:17;7.43;;;6.07;;
20318;SDS011;10317;47.254;11.314;2022-08-27T00:29:43;6.80;;;6.20;;
20318;SDS011;10317;47.254;11.314;2022-08-27T00:32:09;9.45;;;6.57;;
20318;SDS011;10317;47.254;11.314;2022-08-27T00:34:35;6.88;;;6.28;;
20318;SDS011;10317;47.254;11.314;2022-08-27T00:37:00;7.47;;;6.82;;
20318;SDS011;10317;47.254;11.314;2022-08-27T00:39:27;9.20;;;6.88;;
20318;SDS011;10317;47.254;11.314;2022-08-27T00:41:53;8.63;;;6.63;;
20318;SDS011;10317;47.254;11.314;2022-08-27T00:44:19;8.32;;;6.70;;
20318;SDS011;10317;47.254;11.314;2022-08-27T00:46:47;7.97;;;7.28;;
20318;SDS011;10317;47.254;11.314;2022-08-27T00:49:19;8.32;;;7.57;;
20318;SDS011;10317;47.254;11.314;2022-08-27T00:52:05;7.50;;;6.72;;
20318;SDS011;10317;47.254;11.314;2022-08-27T00:54:42;8.07;;;7.28;;
20318;SDS011;10317;47.254;11.314;2022-08-27T00:57:08;9.77;;;7.18;;
20318;SDS011;10317;47.254;11.314;2022-08-27T00:59:34;7.25;;;6.55;;
20318;SDS011;10317;47.254;11.314;2022-08-27T01:02:01;10.77;;;8.63;;
20318;SDS011;10317;47.254;11.314;2022-08-27T01:04:52;8.18;;;7.45;;
20318;SDS011;10317;47.254;11.314;2022-08-27T01:07:31;7.63;;;6.80;;
20318;SDS011;10317;47.254;11.314;2022-08-27T01:10:00;7.10;;;6.40;;
20318;SDS011;10317;47.254;11.314;2022-08-27T01:12:30;5.95;;;5.35;;
20318;SDS011;10317;47.254;11.314;2022-08-27T01:14:57;8.30;;;6.28;;
20318;SDS011;10317;47.254;11.314;2022-08-27T01:17:24;6.43;;;5.93;;
20318;SDS011;10317;47.254;11.314;2022-08-27T01:19:51;6.65;;;6.05;;
20318;SDS011;10317;47.254;11.314;2022-08-27T01:23:05;8.70;;;6.47;;
20318;SDS011;10317;47.254;11.314;2022-08-27T01:25:25;5.57;;;4.95;;
20318;SDS011;10317;47.254;11.314;2022-08-27T01:27:54;4.97;;;4.55;;
20318;SDS011;10317;47.254;11.314;2022-08-27T01:30:22;3.67;;;3.35;;
20318;SDS011;10317;47.254;11.314;2022-08-27T01:32:48;8.48;;;3.58;;
20318;SDS011;10317;47.254;11.314;2022-08-27T01:35:15;2.90;;;2.67;;
20318;SDS011;10317;47.254;11.314;2022-08-27T01:37:42;2.30;;;2.20;;
20318;SDS011;10317;47.254;11.314;2022-08-27T01:40:10;2.88;;;2.60;;
20318;SDS011;10317;47.254;11.314;2022-08-27T01:42:38;3.28;;;2.97;;
20318;SDS011;10317;47.254;11.314;2022-08-27T01:45:10;2.67;;;2.58;;
20318;SDS011;10317;47.254;11.314;2022-08-27T01:47:38;3.08;;;2.72;;
20318;SDS011;10317;47.254;11.314;2022-08-27T01:50:06;3.38;;;2.40;;
20318;SDS011;10317;47.254;11.314;2022-08-27T01:52:36;2.78;;;2.55;;
20318;SDS011;10317;47.254;11.314;2022-08-27T01:55:03;2.70;;;2.58;;
20318;SDS011;10317;47.254;11.314;2022-08-27T01:57:31;2.85;;;2.75;;
20318;SDS011;10317;47.254;11.314;2022-08-27T01:59:59;2.40;;;2.30;;
20318;SDS011;10317;47.254;11.314;2022-08-27T02:02:27;2.60;;;2.47;;
20318;SDS011;10317;47.254;11.314;2022-08-27T02:04:53;11.07;;;2.88;;
20318;SDS011;10317;47.254;11.314;2022-08-27T02:07:18;2.85;;;2.65;;
20318;SDS011;10317;47.254;11.314;2022-08-27T02:09:44;2.90;;;2.60;;
20318;SDS011;10317;47.254;11.314;2022-08-27T02:12:10;3.60;;;2.53;;
20318;SDS011;10317;47.254;11.314;2022-08-27T02:14:35;2.92;;;2.72;;
20318;SDS011;10317;47.254;11.314;2022-08-27T02:17:01;3.17;;;2.97;;
20318;SDS011;10317;47.254;11.314;2022-08-27T02:19:27;2.83;;;2.72;;
20318;SDS011;10317;47.254;11.314;2022-08-27T02:21:53;4.85;;;2.85;;
20318;SDS011;10317;47.254;11.314;2022-08-27T02:24:19;4.90;;;2.70;;
20318;SDS011;10317;47.254;11.314;2022-08-27T02:26:44;2.17;;;2.08;;
20318;SDS011;10317;47.254;11.314;2022-08-27T02:29:10;3.05;;;2.88;;
20318;SDS011;10317;47.254;11.314;2022-08-27T02:31:36;2.70;;;2.60;;
20318;SDS011;10317;47.254;11.314;2022-08-27T02:34:02;2.75;;;2.53;;
20318;SDS011;10317;47.254;11.314;2022-08-27T02:36:28;3.10;;;2.17;;
20318;SDS011;10317;47.254;11.314;2022-08-27T02:38:54;2.50;;;2.30;;
20318;SDS011;10317;47.254;11.314;2022-08-27T02:41:20;2.38;;;2.28;;
20318;SDS011;10317;47.254;11.314;2022-08-27T02:43:46;2.53;;;2.38;;
20318;SDS011;10317;47.254;11.314;2022-08-27T02:46:12;2.80;;;2.60;;
20318;SDS011;10317;47.254;11.314;2022-08-27T02:48:39;2.88;;;2.42;;
20318;SDS011;10317;47.254;11.314;2022-08-27T02:51:05;2.55;;;2.45;;
20318;SDS011;10317;47.254;11.314;2022-08-27T02:53:32;2.40;;;2.30;;
20318;SDS011;10317;47.254;11.314;2022-08-27T02:55:59;2.33;;;2.22;;
20318;SDS011;10317;47.254;11.314;2022-08-27T02:58:25;3.72;;;2.65;;
20318;SDS011;10317;47.254;11.314;2022-08-27T03:00:51;2.90;;;2.30;;
20318;SDS011;10317;47.254;11.314;2022-08-27T03:03:16;4.78;;;3.05;;
20318;SDS011;10317;47.254;11.314;2022-08-27T03:05:42;2.65;;;2.55;;
20318;SDS011;10317;47.254;11.314;2022-08-27T03:08:09;2.45;;;2.35;;
20318;SDS011;10317;47.254;11.314;2022-08-27T03:10:35;2.35;;;2.25;;
20318;SDS011;10317;47.254;11.314;2022-08-27T03:13:01;2.40;;;2.20;;
20318;SDS011;10317;47.254;11.314;2022-08-27T03:15:27;2.47;;;2.15;;
20318;SDS011;10317;47.254;11.314;2022-08-27T03:17:53;2.88;;;2.13;;
20318;SDS011;10317;47.254;11.314;2022-08-27T03:20:41;2.28;;;2.17;;
20318;SDS011;10317;47.254;11.314;2022-08-27T03:23:09;3.03;;;2.78;;
20318;SDS011;10317;47.254;11.314;2022-08-27T03:25:35;3.00;;;2.60;;
20318;SDS011;10317;47.254;11.314;2022-08-27T03:28:02;2.15;;;2.08;;
20318;SDS011;10317;47.254;11.314;2022-08-27T03:30:28;2.30;;;2.20;;
20318;SDS011;10317;47.254;11.314;2022-08-27T03:32:53;2.50;;;2.17;;
20318;SDS011;10317;47.254;11.314;2022-08-27T03:35:19;2.67;;;2.47;;
20318;SDS011;10317;47.254;11.314;2022-08-27T03:37:46;2.10;;;1.92;;
20318;SDS011;10317;47.254;11.314;2022-08-27T03:40:13;2.63;;;2.45;;
20318;SDS011;10317;47.254;11.314;2022-08-27T03:42:39;2.58;;;2.40;;
20318;SDS011;10317;47.254;11.314;2022-08-27T03:45:06;2.38;;;2.28;;
20318;SDS011;10317;47.254;11.314;2022-08-27T03:47:33;2.17;;;2.08;;
20318;SDS011;10317;47.254;11.314;2022-08-27T03:49:59;2.35;;;2.15;;
20318;SDS011;10317;47.254;11.314;2022-08-27T03:52:25;2.60;;;2.40;;
20318;SDS011;10317;47.254;11.314;2022-08-27T03:54:51;2.20;;;2.05;;
20318;SDS011;10317;47.254;11.314;2022-08-27T03:57:17;2.53;;;2.40;;
20318;SDS011;10317;47.254;11.314;2022-08-27T03:59:43;2.33;;;2.22;;
20318;SDS011;10317;47.254;11.314;2022-08-27T04:02:09;2.33;;;2.22;;
20318;SDS011;10317;47.254;11.314;2022-08-27T04:04:35;2.45;;;2.35;;
20318;SDS011;10317;47.254;11.314;2022-08-27T04:07:00;2.10;;;2.10;;
20318;SDS011;10317;47.254;11.314;2022-08-27T04:09:26;2.28;;;2.17;;
20318;SDS011;10317;47.254;11.314;2022-08-27T04:11:52;2.33;;;2.20;;
20318;SDS011;10317;47.254;11.314;2022-08-27T04:14:18;2.20;;;2.10;;
20318;SDS011;10317;47.254;11.314;2022-08-27T04:16:44;2.60;;;2.40;;
20318;SDS011;10317;47.254;11.314;2022-08-27T04:19:09;2.40;;;2.30;;
20318;SDS011;10317;47.254;11.314;2022-08-27T04:21:36;2.55;;;2.35;;
20318;SDS011;10317;47.254;11.314;2022-08-27T04:24:02;3.33;;;3.00;;
20318;SDS011;10317;47.254;11.314;2022-08-27T04:26:28;2.40;;;2.30;;
20318;SDS011;10317;47.254;11.314;2022-08-27T04:28:55;2.97;;;2.65;;
20318;SDS011;10317;47.254;11.314;2022-08-27T04:31:22;2.22;;;2.13;;
20318;SDS011;10317;47.254;11.314;2022-08-27T04:33:48;2.70;;;2.53;;
20318;SDS011;10317;47.254;11.314;2022-08-27T04:36:14;5.30;;;3.00;;
20318;SDS011;10317;47.254;11.314;2022-08-27T04:38:41;2.72;;;2.53;;
20318;SDS011;10317;47.254;11.314;2022-08-27T04:41:08;2.60;;;2.50;;
20318;SDS011;10317;47.254;11.314;2022-08-27T04:43:44;3.35;;;2.60;;
20318;SDS011;10317;47.254;11.314;2022-08-27T04:46:10;4.03;;;2.65;;
20318;SDS011;10317;47.254;11.314;2022-08-27T04:48:36;3.03;;;2.58;;
20318;SDS011;10317;47.254;11.314;2022-08-27T04:51:02;2.88;;;2.67;;
20318;SDS011;10317;47.254;11.314;2022-08-27T04:53:28;2.95;;;2.67;;
20318;SDS011;10317;47.254;11.314;2022-08-27T04:55:55;3.30;;;3.00;;
20318;SDS011;10317;47.254;11.314;2022-08-27T04:58:22;3.70;;;2.90;;
20318;SDS011;10317;47.254;11.314;2022-08-27T05:00:50;2.70;;;2.60;;
20318;SDS011;10317;47.254;11.314;2022-08-27T05:03:18;4.78;;;3.33;;
20318;SDS011;10317;47.254;11.314;2022-08-27T05:05:47;3.15;;;2.95;;
20318;SDS011;10317;47.254;11.314;2022-08-27T05:08:12;3.03;;;2.83;;
20318;SDS011;10317;47.254;11.314;2022-08-27T05:10:39;3.10;;;2.92;;
20318;SDS011;10317;47.254;11.314;2022-08-27T05:13:13;3.28;;;3.05;;
20318;SDS011;10317;47.254;11.314;2022-08-27T05:15:39;3.42;;;3.13;;
20318;SDS011;10317;47.254;11.314;2022-08-27T05:18:06;3.10;;;2.90;;
20318;SDS011;10317;47.254;11.314;2022-08-27T05:20:32;4.05;;;3.13;;
20318;SDS011;10317;47.254;11.314;2022-08-27T05:22:58;2.85;;;2.60;;
20318;SDS011;10317;47.254;11.314;2022-08-27T05:25:24;5.78;;;2.72;;
20318;SDS011;10317;47.254;11.314;2022-08-27T05:27:51;3.13;;;2.90;;
20318;SDS011;10317;47.254;11.314;2022-08-27T05:30:17;3.00;;;2.80;;
20318;SDS011;10317;47.254;11.314;2022-08-27T05:32:43;4.68;;;2.88;;
20318;SDS011;10317;47.254;11.314;2022-08-27T05:35:09;3.65;;;2.83;;
20318;SDS011;10317;47.254;11.314;2022-08-27T05:37:35;4.90;;;4.25;;
20318;SDS011;10317;47.254;11.314;2022-08-27T05:40:02;3.85;;;3.55;;
20318;SDS011;10317;47.254;11.314;2022-08-27T05:42:29;3.17;;;2.78;;
20318;SDS011;10317;47.254;11.314;2022-08-27T05:44:56;2.67;;;2.55;;
20318;SDS011;10317;47.254;11.314;2022-08-27T05:47:22;2.70;;;2.50;;
20318;SDS011;10317;47.254;11.314;2022-08-27T05:49:52;3.00;;;2.80;;
20318;SDS011;10317;47.254;11.314;2022-08-27T05:52:19;2.88;;;2.67;;
20318;SDS011;10317;47.254;11.314;2022-08-27T05:54:46;2.60;;;2.50;;
20318;SDS011;10317;47.254;11.314;2022-08-27T05:57:12;3.30;;;3.10;;
20318;SDS011;10317;47.254;11.314;2022-08-27T05:59:38;5.38;;;2.88;;
20318;SDS011;10317;47.254;11.314;2022-08-27T06:02:22;2.63;;;2.53;;
20318;SDS011;10317;47.254;11.314;2022-08-27T06:04:48;2.97;;;2.75;;
20318;SDS011;10317;47.254;11.314;2022-08-27T06:07:14;2.88;;;2.75;;
20318;SDS011;10317;47.254;11.314;2022-08-27T06:09:40;3.10;;;2.80;;
20318;SDS011;10317;47.254;11.314;2022-08-27T06:12:07;4.03;;;2.38;;
20318;SDS011;10317;47.254;11.314;2022-08-27T06:14:34;3.28;;;2.50;;
20318;SDS011;10317;47.254;11.314;2022-08-27T06:17:00;4.20;;;3.00;;
20318;SDS011;10317;47.254;11.314;2022-08-27T06:19:26;2.65;;;2.45;;
20318;SDS011;10317;47.254;11.314;2022-08-27T06:21:52;3.35;;;3.15;;
20318;SDS011;10317;47.254;11.314;2022-08-27T06:24:18;3.13;;;2.92;;
20318;SDS011;10317;47.254;11.314;2022-08-27T06:26:44;2.72;;;2.53;;
20318;SDS011;10317;47.254;11.314;2022-08-27T06:29:10;2.80;;;2.60;;
20318;SDS011;10317;47.254;11.314;2022-08-27T06:31:37;2.40;;;2.20;;
20318;SDS011;10317;47.254;11.314;2022-08-27T06:34:04;2.83;;;2.63;;
20318;SDS011;10317;47.254;11.314;2022-08-27T06:36:31;2.53;;;2.33;;
20318;SDS011;10317;47.254;11.314;2022-08-27T06:38:59;2.58;;;2.47;;
20318;SDS011;10317;47.254;11.314;2022-08-27T06:41:26;2.30;;;2.10;;
20318;SDS011;10317;47.254;11.314;2022-08-27T06:43:53;2.92;;;2.65;;
20318;SDS011;10317;47.254;11.314;2022-08-27T06:46:20;3.13;;;2.92;;
20318;SDS011;10317;47.254;11.314;2022-08-27T06:48:51;2.70;;;2.50;;
20318;SDS011;10317;47.254;11.314;2022-08-27T06:51:19;2.67;;;2.47;;
20318;SDS011;10317;47.254;11.314;2022-08-27T06:53:48;2.60;;;2.40;;
20318;SDS011;10317;47.254;11.314;2022-08-27T06:56:14;3.00;;;2.63;;
20318;SDS011;10317;47.254;11.314;2022-08-27T06:58:41;2.85;;;2.65;;
20318;SDS011;10317;47.254;11.314;2022-08-27T07:01:14;2.60;;;2.40;;
20318;SDS011;10317;47.254;11.314;2022-08-27T07:03:46;2.30;;;2.20;;
20318;SDS011;10317;47.254;11.314;2022-08-27T07:06:12;2.38;;;2.28;;
20318;SDS011;10317;47.254;11.314;2022-08-27T07:08:39;2.75;;;2.50;;
20318;SDS011;10317;47.254;11.314;2022-08-27T07:11:06;2.50;;;2.35;;
20318;SDS011;10317;47.254;11.314;2022-08-27T07:13:36;3.20;;;2.33;;
20318;SDS011;10317;47.254;11.314;2022-08-27T07:16:03;4.47;;;2.65;;
20318;SDS011;10317;47.254;11.314;2022-08-27T07:18:34;3.33;;;2.63;;
20318;SDS011;10317;47.254;11.314;2022-08-27T07:21:01;3.10;;;2.30;;
20318;SDS011;10317;47.254;11.314;2022-08-27T07:23:30;2.83;;;2.50;;
20318;SDS011;10317;47.254;11.314;2022-08-27T07:25:57;2.45;;;2.22;;
20318;SDS011;10317;47.254;11.314;2022-08-27T07:28:23;2.65;;;2.30;;
20318;SDS011;10317;47.254;11.314;2022-08-27T07:30:49;2.25;;;2.15;;
20318;SDS011;10317;47.254;11.314;2022-08-27T07:33:16;3.22;;;3.03;;
20318;SDS011;10317;47.254;11.314;2022-08-27T07:35:42;2.28;;;2.17;;
20318;SDS011;10317;47.254;11.314;2022-08-27T07:38:09;2.30;;;2.20;;
20318;SDS011;10317;47.254;11.314;2022-08-27T07:40:36;2.25;;;2.22;;
20318;SDS011;10317;47.254;11.314;2022-08-27T07:43:06;3.92;;;2.60;;
20318;SDS011;10317;47.254;11.314;2022-08-27T07:45:51;2.33;;;2.20;;
20318;SDS011;10317;47.254;11.314;2022-08-27T07:48:23;2.38;;;2.28;;
20318;SDS011;10317;47.254;11.314;2022-08-27T07:50:50;2.42;;;2.22;;
20318;SDS011;10317;47.254;11.314;2022-08-27T07:53:17;1.95;;;1.85;;
20318;SDS011;10317;47.254;11.314;2022-08-27T07:55:44;2.22;;;2.13;;
20318;SDS011;10317;47.254;11.314;2022-08-27T07:58:10;3.78;;;2.40;;
20318;SDS011;10317;47.254;11.314;2022-08-27T08:00:39;2.42;;;2.30;;
20318;SDS011;10317;47.254;11.314;2022-08-27T08:03:09;2.25;;;2.05;;
20318;SDS011;10317;47.254;11.314;2022-08-27T08:05:40;3.13;;;2.38;;
20318;SDS011;10317;47.254;11.314;2022-08-27T08:08:07;2.13;;;2.03;;
20318;SDS011;10317;47.254;11.314;2022-08-27T08:10:36;3.58;;;2.80;;
20318;SDS011;10317;47.254;11.314;2022-08-27T08:13:03;1.70;;;1.70;;
20318;SDS011;10317;47.254;11.314;2022-08-27T08:15:29;2.63;;;2.42;;
20318;SDS011;10317;47.254;11.314;2022-08-27T08:17:55;2.00;;;1.90;;
20318;SDS011;10317;47.254;11.314;2022-08-27T08:20:21;2.47;;;2.28;;
20318;SDS011;10317;47.254;11.314;2022-08-27T08:22:47;1.70;;;1.70;;
20318;SDS011;10317;47.254;11.314;2022-08-27T08:25:13;4.20;;;2.38;;
20318;SDS011;10317;47.254;11.314;2022-08-27T08:27:42;1.55;;;1.50;;
20318;SDS011;10317;47.254;11.314;2022-08-27T08:30:09;1.83;;;1.75;;
20318;SDS011;10317;47.254;11.314;2022-08-27T08:32:35;2.67;;;1.77;;
20318;SDS011;10317;47.254;11.314;2022-08-27T08:35:02;2.00;;;1.90;;
20318;SDS011;10317;47.254;11.314;2022-08-27T08:37:29;3.75;;;2.33;;
20318;SDS011;10317;47.254;11.314;2022-08-27T08:39:54;1.77;;;1.67;;
20318;SDS011;10317;47.254;11.314;2022-08-27T08:42:26;2.17;;;2.08;;
20318;SDS011;10317;47.254;11.314;2022-08-27T08:45:27;1.98;;;1.80;;
20318;SDS011;10317;47.254;11.314;2022-08-27T08:56:42;1.80;;;1.80;;
20318;SDS011;10317;47.254;11.314;2022-08-27T08:59:28;2.13;;;2.00;;
20318;SDS011;10317;47.254;11.314;2022-08-27T09:02:07;1.85;;;1.77;;
20318;SDS011;10317;47.254;11.314;2022-08-27T09:04:35;2.05;;;1.67;;
20318;SDS011;10317;47.254;11.314;2022-08-27T09:07:09;1.58;;;1.40;;
20318;SDS011;10317;47.254;11.314;2022-08-27T09:12:13;1.52;;;1.30;;
20318;SDS011;10317;47.254;11.314;2022-08-27T09:14:57;1.40;;;1.40;;
20318;SDS011;10317;47.254;11.314;2022-08-27T09:17:30;1.40;;;1.30;;
20318;SDS011;10317;47.254;11.314;2022-08-27T09:19:57;1.50;;;1.50;;
20318;SDS011;10317;47.254;11.314;2022-08-27T09:22:43;1.20;;;1.20;;
20318;SDS011;10317;47.254;11.314;2022-08-27T09:25:23;1.33;;;1.33;;
20318;SDS011;10317;47.254;11.314;2022-08-27T09:27:59;1.30;;;1.30;;
20318;SDS011;10317;47.254;11.314;2022-08-27T09:30:40;1.10;;;1.10;;
20318;SDS011;10317;47.254;11.314;2022-08-27T09:33:07;1.35;;;1.35;;
20318;SDS011;10317;47.254;11.314;2022-08-27T09:35:35;1.42;;;1.42;;
20318;SDS011;10317;47.254;11.314;2022-08-27T09:38:06;3.50;;;1.88;;
20318;SDS011;10317;47.254;11.314;2022-08-27T09:40:47;1.88;;;1.77;;
20318;SDS011;10317;47.254;11.314;2022-08-27T09:45:51;1.70;;;1.70;;
20318;SDS011;10317;47.254;11.314;2022-08-27T09:48:34;1.50;;;1.50;;
20318;SDS011;10317;47.254;11.314;2022-08-27T09:51:15;1.88;;;1.77;;
20318;SDS011;10317;47.254;11.314;2022-08-27T09:53:52;1.70;;;1.60;;
20318;SDS011;10317;47.254;11.314;2022-08-27T09:56:22;1.88;;;1.85;;
20318;SDS011;10317;47.254;11.314;2022-08-27T09:59:03;3.83;;;1.73;;
20318;SDS011;10317;47.254;11.314;2022-08-27T10:04:53;1.52;;;1.52;;
20318;SDS011;10317;47.254;11.314;2022-08-27T10:07:30;1.60;;;1.60;;
20318;SDS011;10317;47.254;11.314;2022-08-27T10:10:07;2.47;;;2.08;;
20318;SDS011;10317;47.254;11.314;2022-08-27T10:15:36;1.90;;;1.80;;
20318;SDS011;10317;47.254;11.314;2022-08-27T10:18:18;1.73;;;1.70;;
20318;SDS011;10317;47.254;11.314;2022-08-27T10:29:37;1.83;;;1.83;;
20318;SDS011;10317;47.254;11.314;2022-08-27T10:37:49;1.88;;;1.77;;
20318;SDS011;10317;47.254;11.314;2022-08-27T10:45:50;2.10;;;2.10;;
20318;SDS011;10317;47.254;11.314;2022-08-27T10:48:34;1.70;;;1.70;;
20318;SDS011;10317;47.254;11.314;2022-08-27T11:04:24;2.35;;;1.80;;
20318;SDS011;10317;47.254;11.314;2022-08-27T11:06:56;2.00;;;1.90;;
20318;SDS011;10317;47.254;11.314;2022-08-27T11:12:40;1.88;;;1.77;;
20318;SDS011;10317;47.254;11.314;2022-08-27T11:17:41;1.85;;;1.83;;
20318;SDS011;10317;47.254;11.314;2022-08-27T11:22:47;2.08;;;1.98;;
20318;SDS011;10317;47.254;11.314;2022-08-27T11:28:18;1.80;;;1.70;;
20318;SDS011;10317;47.254;11.314;2022-08-27T11:39:32;2.30;;;2.17;;
20318;SDS011;10317;47.254;11.314;2022-08-27T11:44:16;1.77;;;1.67;;
20318;SDS011;10317;47.254;11.314;2022-08-27T11:46:47;1.73;;;1.73;;
20318;SDS011;10317;47.254;11.314;2022-08-27T11:49:35;1.85;;;1.85;;
20318;SDS011;10317;47.254;11.314;2022-08-27T11:52:08;2.03;;;1.98;;
20318;SDS011;10317;47.254;11.314;2022-08-27T11:54:50;2.03;;;1.92;;
20318;SDS011;10317;47.254;11.314;2022-08-27T11:59:56;2.28;;;2.17;;
20318;SDS011;10317;47.254;11.314;2022-08-27T12:02:24;3.17;;;1.95;;
20318;SDS011;10317;47.254;11.314;2022-08-27T12:04:52;2.50;;;2.30;;
20318;SDS011;10317;47.254;11.314;2022-08-27T12:07:40;2.15;;;2.08;;
20318;SDS011;10317;47.254;11.314;2022-08-27T12:13:33;1.83;;;1.77;;
20318;SDS011;10317;47.254;11.314;2022-08-27T12:16:24;2.20;;;2.10;;
20318;SDS011;10317;47.254;11.314;2022-08-27T12:29:50;2.20;;;2.03;;
20318;SDS011;10317;47.254;11.314;2022-08-27T12:32:25;2.95;;;2.60;;
20318;SDS011;10317;47.254;11.314;2022-08-27T12:40:21;2.85;;;2.55;;
20318;SDS011;10317;47.254;11.314;2022-08-27T12:42:50;2.42;;;2.33;;
20318;SDS011;10317;47.254;11.314;2022-08-27T12:45:27;2.22;;;2.13;;
20318;SDS011;10317;47.254;11.314;2022-08-27T12:47:54;2.35;;;2.08;;
20318;SDS011;10317;47.254;11.314;2022-08-27T12:50:23;2.53;;;2.38;;
20318;SDS011;10317;47.254;11.314;2022-08-27T12:53:06;2.20;;;2.10;;
20318;SDS011;10317;47.254;11.314;2022-08-27T12:55:53;2.15;;;2.08;;
20318;SDS011;10317;47.254;11.314;2022-08-27T12:59:28;2.53;;;2.35;;
20318;SDS011;10317;47.254;11.314;2022-08-27T13:04:55;2.28;;;2.17;;
20318;SDS011;10317;47.254;11.314;2022-08-27T13:07:26;2.42;;;2.33;;
20318;SDS011;10317;47.254;11.314;2022-08-27T13:09:54;2.50;;;2.30;;
20318;SDS011;10317;47.254;11.314;2022-08-27T13:12:21;2.38;;;2.17;;
20318;SDS011;10317;47.254;11.314;2022-08-27T13:14:49;2.42;;;2.33;;
20318;SDS011;10317;47.254;11.314;2022-08-27T13:17:18;2.22;;;2.13;;
20318;SDS011;10317;47.254;11.314;2022-08-27T13:19:47;2.35;;;2.33;;
20318;SDS011;10317;47.254;11.314;2022-08-27T13:22:21;2.20;;;2.10;;
20318;SDS011;10317;47.254;11.314;2022-08-27T13:24:49;2.30;;;2.25;;
20318;SDS011;10317;47.254;11.314;2022-08-27T13:27:21;2.38;;;2.28;;
20318;SDS011;10317;47.254;11.314;2022-08-27T13:29:49;2.30;;;2.20;;
20318;SDS011;10317;47.254;11.314;2022-08-27T13:32:16;2.13;;;2.13;;
20318;SDS011;10317;47.254;11.314;2022-08-27T13:34:42;2.33;;;2.22;;
20318;SDS011;10317;47.254;11.314;2022-08-27T13:37:30;2.40;;;2.30;;
20318;SDS011;10317;47.254;11.314;2022-08-27T13:40:09;2.17;;;2.08;;
20318;SDS011;10317;47.254;11.314;2022-08-27T13:42:46;2.38;;;2.22;;
20318;SDS011;10317;47.254;11.314;2022-08-27T13:45:15;2.38;;;2.28;;
20318;SDS011;10317;47.254;11.314;2022-08-27T13:47:43;2.65;;;2.55;;
20318;SDS011;10317;47.254;11.314;2022-08-27T13:50:45;2.53;;;2.33;;
20318;SDS011;10317;47.254;11.314;2022-08-27T13:53:11;2.40;;;2.20;;
20318;SDS011;10317;47.254;11.314;2022-08-27T13:56:00;2.15;;;2.05;;
20318;SDS011;10317;47.254;11.314;2022-08-27T13:58:28;3.83;;;2.33;;
20318;SDS011;10317;47.254;11.314;2022-08-27T14:01:06;2.40;;;2.20;;
20318;SDS011;10317;47.254;11.314;2022-08-27T14:03:45;2.28;;;2.17;;
20318;SDS011;10317;47.254;11.314;2022-08-27T14:09:25;2.72;;;2.45;;
20318;SDS011;10317;47.254;11.314;2022-08-27T14:12:01;3.08;;;2.45;;
20318;SDS011;10317;47.254;11.314;2022-08-27T14:14:35;2.15;;;2.05;;
20318;SDS011;10317;47.254;11.314;2022-08-27T14:17:02;2.15;;;2.10;;
20318;SDS011;10317;47.254;11.314;2022-08-27T14:19:29;1.85;;;1.80;;
20318;SDS011;10317;47.254;11.314;2022-08-27T14:21:57;2.30;;;2.20;;
20318;SDS011;10317;47.254;11.314;2022-08-27T14:24:24;2.35;;;2.25;;
20318;SDS011;10317;47.254;11.314;2022-08-27T14:26:51;2.10;;;2.10;;
20318;SDS011;10317;47.254;11.314;2022-08-27T14:29:18;2.33;;;2.10;;
20318;SDS011;10317;47.254;11.314;2022-08-27T14:31:45;2.40;;;2.30;;
20318;SDS011;10317;47.254;11.314;2022-08-27T14:34:11;2.47;;;2.30;;
20318;SDS011;10317;47.254;11.314;2022-08-27T14:36:39;8.05;;;2.72;;
20318;SDS011;10317;47.254;11.314;2022-08-27T14:39:06;4.10;;;2.17;;
20318;SDS011;10317;47.254;11.314;2022-08-27T14:41:33;9.55;;;4.20;;
20318;SDS011;10317;47.254;11.314;2022-08-27T14:43:59;15.30;;;5.45;;
20318;SDS011;10317;47.254;11.314;2022-08-27T14:46:28;5.68;;;3.33;;
20318;SDS011;10317;47.254;11.314;2022-08-27T14:48:57;7.07;;;3.75;;
20318;SDS011;10317;47.254;11.314;2022-08-27T14:51:25;3.42;;;3.13;;
20318;SDS011;10317;47.254;11.314;2022-08-27T14:53:54;3.85;;;3.55;;
20318;SDS011;10317;47.254;11.314;2022-08-27T14:56:21;3.47;;;2.78;;
20318;SDS011;10317;47.254;11.314;2022-08-27T14:58:48;4.68;;;3.10;;
20318;SDS011;10317;47.254;11.314;2022-08-27T15:01:14;2.75;;;2.58;;
20318;SDS011;10317;47.254;11.314;2022-08-27T15:03:45;5.35;;;3.08;;
20318;SDS011;10317;47.254;11.314;2022-08-27T15:06:12;3.55;;;3.15;;
20318;SDS011;10317;47.254;11.314;2022-08-27T15:08:39;6.50;;;3.53;;
20318;SDS011;10317;47.254;11.314;2022-08-27T15:11:05;3.40;;;3.20;;
20318;SDS011;10317;47.254;11.314;2022-08-27T15:13:36;4.18;;;2.60;;
20318;SDS011;10317;47.254;11.314;2022-08-27T15:16:02;5.03;;;3.20;;
20318;SDS011;10317;47.254;11.314;2022-08-27T15:18:28;4.45;;;3.00;;
20318;SDS011;10317;47.254;11.314;2022-08-27T15:20:53;3.50;;;3.20;;
20318;SDS011;10317;47.254;11.314;2022-08-27T15:23:19;3.42;;;3.22;;
20318;SDS011;10317;47.254;11.314;2022-08-27T15:25:45;3.15;;;2.92;;
20318;SDS011;10317;47.254;11.314;2022-08-27T15:28:11;3.08;;;2.88;;
20318;SDS011;10317;47.254;11.314;2022-08-27T15:30:37;2.42;;;2.33;;
20318;SDS011;10317;47.254;11.314;2022-08-27T15:33:04;3.08;;;2.78;;
20318;SDS011;10317;47.254;11.314;2022-08-27T15:35:30;3.08;;;2.88;;
20318;SDS011;10317;47.254;11.314;2022-08-27T15:37:56;3.97;;;3.67;;
20318;SDS011;10317;47.254;11.314;2022-08-27T15:40:23;4.25;;;3.67;;
20318;SDS011;10317;47.254;11.314;2022-08-27T15:43:00;4.03;;;2.80;;
20318;SDS011;10317;47.254;11.314;2022-08-27T15:45:28;3.17;;;3.08;;
20318;SDS011;10317;47.254;11.314;2022-08-27T15:47:55;3.20;;;2.90;;
20318;SDS011;10317;47.254;11.314;2022-08-27T15:50:22;3.20;;;3.00;;
20318;SDS011;10317;47.254;11.314;2022-08-27T15:52:48;3.55;;;3.35;;
20318;SDS011;10317;47.254;11.314;2022-08-27T15:55:19;2.72;;;2.63;;
20318;SDS011;10317;47.254;11.314;2022-08-27T15:57:49;3.35;;;2.97;;
20318;SDS011;10317;47.254;11.314;2022-08-27T16:00:15;3.90;;;2.70;;
20318;SDS011;10317;47.254;11.314;2022-08-27T16:02:42;3.03;;;2.83;;
20318;SDS011;10317;47.254;11.314;2022-08-27T16:05:10;3.08;;;2.78;;
20318;SDS011;10317;47.254;11.314;2022-08-27T16:07:37;2.75;;;2.65;;
20318;SDS011;10317;47.254;11.314;2022-08-27T16:10:03;2.70;;;2.60;;
20318;SDS011;10317;47.254;11.314;2022-08-27T16:12:30;3.20;;;2.88;;
20318;SDS011;10317;47.254;11.314;2022-08-27T16:14:56;3.05;;;2.85;;
20318;SDS011;10317;47.254;11.314;2022-08-27T16:17:22;2.90;;;2.75;;
20318;SDS011;10317;47.254;11.314;2022-08-27T16:19:50;3.20;;;3.00;;
20318;SDS011;10317;47.254;11.314;2022-08-27T16:22:16;3.55;;;3.33;;
20318;SDS011;10317;47.254;11.314;2022-08-27T16:24:42;3.85;;;3.55;;
20318;SDS011;10317;47.254;11.314;2022-08-27T16:27:08;3.38;;;3.08;;
20318;SDS011;10317;47.254;11.314;2022-08-27T16:29:34;2.75;;;2.55;;